CST,Max TemperatureF,Mean TemperatureF,Min TemperatureF,Max Dew PointF,MeanDew PointF,Min DewpointF,Max Humidity, Mean Humidity, Min Humidity, Max Sea Level PressureIn, Mean Sea Level PressureIn, Min Sea Level PressureIn, Max VisibilityMiles, Mean VisibilityMiles, Min VisibilityMiles, Max Wind SpeedMPH, Mean Wind SpeedMPH, Max Gust SpeedMPH,PrecipitationIn, CloudCover, Events, WindDirDegrees
2013-12-1,41,34,26,32,28,25,100,83,70,30.13,29.91,29.65,10,10,10,17,8,23,0.00,4,,139
2013-12-2,37,30,23,37,30,19,100,97,86,29.71,29.57,29.49,10,8,1,17,8,23,0.00,7,,73
2013-12-3,23,16,10,23,14,7,100,93,85,29.93,29.84,29.72,10,5,0,20,13,26,0.00,8,Fog,13
2013-12-4,10,5,0,7,3,-4,92,84,78,30.00,29.90,29.86,10,3,1,29,17,39,0.00,8,,331
2013-12-5,0,-6,-13,-4,-12,-18,85,72,60,30.35,30.17,30.00,10,10,8,26,19,34,0.00,1,,288
2013-12-6,-5,-12,-18,-15,-19,-24,84,75,65,30.58,30.50,30.36,10,10,10,15,10,20,0.00,1,,278
2013-12-7,-9,-18,-27,-17,-24,-35,84,73,59,30.58,30.48,30.32,10,10,9,10,7,,0.00,1,,228
2013-12-8,1,-6,-13,-4,-10,-18,85,78,70,30.31,30.07,29.97,10,8,2,15,6,25,0.00,5,,208
2013-12-9,17,-2,-22,16,-7,-27,93,78,65,30.08,29.90,29.65,10,8,0,33,13,43,0.42,3,Rain-Snow,257
2013-12-10,19,5,-9,18,-1,-17,93,79,66,30.38,30.04,29.90,10,9,1,22,12,29,0.29,4,Rain-Snow,291
2013-12-11,15,-5,-25,9,-10,-29,92,78,69,30.43,30.30,30.11,10,10,9,15,7,18,0.00,1,,224
2013-12-12,32,18,5,21,13,1,93,85,60,30.18,30.08,30.00,10,10,8,16,5,22,0.00,2,,132
2013-12-13,10,5,0,9,-2,-6,92,84,78,30.25,30.13,30.02,10,10,6,18,12,22,0.00,7,Rain-Snow,82
2013-12-14,12,6,0,7,2,-4,92,84,73,30.24,30.14,30.04,10,10,5,14,5,,0.00,7,Snow,286
2013-12-15,6,4,1,3,0,-2,92,83,78,30.06,29.94,29.82,10,9,2,16,12,23,0.05,6,Snow,130
2013-12-16,35,18,1,28,19,0,100,85,70,30.01,29.95,29.80,10,10,4,18,8,24,0.00,2,,275
2013-12-17,32,24,17,27,18,14,93,79,69,30.17,30.03,29.73,10,10,10,23,14,30,0.00,0,,243
2013-12-18,41,28,14,32,23,12,100,83,61,29.98,29.70,29.60,10,10,10,18,10,25,0.00,2,Rain,304
2013-12-19,14,2,-9,10,-2,-13,92,85,72,30.18,30.11,29.98,10,6,0,20,12,25,1.86,6,Rain-Snow,11
2013-12-20,5,-8,-22,0,-11,-27,92,82,76,30.12,29.89,29.71,10,10,4,12,4,,0.00,0,,152
2013-12-21,1,-8,-16,-2,-9,-20,92,82,72,30.08,29.92,29.74,10,9,3,13,5,,0.09,4,Snow,42
2013-12-22,0,-11,-23,-4,-12,-29,85,77,69,30.46,30.23,30.08,10,8,2,14,6,,0.28,5,Snow,339
2013-12-23,-2,-18,-31,-8,-20,-36,85,78,68,30.50,30.36,30.12,10,10,8,20,7,28,0.00,0,,169
2013-12-24,30,14,-2,30,12,-6,100,90,78,30.13,30.00,29.93,10,8,0,20,10,25,0.88,6,Snow,230
2013-12-25,32,26,19,32,25,18,100,91,80,30.20,30.09,29.99,10,9,2,23,10,28,1.51,6,Rain-Snow,289
2013-12-26,32,20,8,27,22,9,100,92,75,30.08,30.00,29.93,10,10,9,17,6,23,0.00,2,,219
2013-12-27,39,28,17,32,29,18,100,90,75,29.99,29.92,29.81,10,10,10,13,8,,0.00,1,,217
2013-12-28,32,14,-5,28,10,-13,100,87,65,30.45,30.00,29.67,10,8,0,31,12,41,0.12,3,Rain-Snow,348
2013-12-29,6,-5,-16,3,-9,-20,85,76,60,30.45,30.26,29.96,10,10,3,15,6,16,0.00,5,Snow,199
2013-12-30,6,1,-4,5,1,-8,92,86,78,30.20,30.07,29.89,10,8,1,16,9,21,0.29,7,Rain-Snow,56
2013-12-31,1,-3,-7,0,-7,-13,92,80,66,30.26,30.18,30.09,10,6,2,14,7,22,0.33,7,Snow,95